Scott, Louisiana
Current Conditions -  °F | °C
As of 5:53 AM on Monday 24 Nov 2014 (Local Time) from KLFT Reporting Station
Clear Clear  
Wind Chill: 60°   Ceiling: Unl
Heat Index: 60°   Visibility: 10mi
Dew Point: 53°   Wind: 10mph
Humidity: 78%   Direction: 330°NNW
Pressure: 29.83"   Gusts: NA
Location:  30.24°N, 92.09°W
Report Text: KLFT 241153Z 33009KT 10SM CLR 16/12 A2983 RMK AO2 SLP101 70003 T01560117 10200 20156 53026 $
Loading
Personal Weather Stations






























Interactive Weather Map New forecast layout! Learn more

10-Day Weather Forecast

Advertisements
Track Severe Weather on mobile